Aeroporto :







RITROVATECI SU...

 
LOGIN :

Iscrizione | Disclaimer

   EN    FR    IT 

 









Sommario :    VFR   VFR Marginale   IFR   IFR Intensivo   IFR Molto Intensivo
Visibilità : 
Base nubi : 
>= 8 km
>= 3000ft
5 / 8 km
1000 / 3000 ft
1500m / 5 km
500 / 1000 ft
800 / 1500m
200 / 500 ft
< 800m
< 200 ft
Simboli :   Temporali  Nebbia  Neve Forte  Precipitazioni Forti  Vento > 20 kt






- Altitudine del aeroporto : 68 ft
- Codice IATA : YFC


CYFC - Fredericton

ULTIMO METAR :
  • 122315Z AUTO 26008G15KT 1 3/4SM -SN BKN011 BKN015 OVC021 M02/M02 A2962 RMK SLP033

METARs OBSOLETI :
  • 122300Z AUTO 26011G16KT 1 1/2SM -SN BKN011 OVC015 M01/M02 A2961 RMK SLP030
  • 122255Z AUTO 26008KT 1 1/2SM -SN BKN011 OVC015 M01/M02 A2961 RMK SLP029
  • 122246Z AUTO 27007G15KT 1 1/2SM -SN BKN008 BKN012 OVC017 M01/M01 A2961 RMK SLP028
  • 122236Z AUTO 26009G15KT 1 1/2SM -SN SCT008 BKN012 OVC017 M00/M01 A2961 RMK SLP029
  • 122223Z AUTO 26008KT 1 1/4SM -SN BKN008 OVC012 M00/M00 A2961 RMK SLP028
  • 122217Z AUTO 26008KT 1 3/4SM -SN FEW008 BKN012 OVC050 00/M00 A2960 RMK SLP027
  • 122203Z AUTO 28008KT 240V300 8SM -RA -UP BKN014 OVC050 00/M00 A2960 RMK SLP025
  • 122137Z AUTO 26006KT 9SM RA SCT012 BKN031 OVC046 01/00 A2959 RMK SLP024
  • 122119Z AUTO 25005KT 9SM RA FEW010 BKN014 OVC029 01/01 A2959 RMK SLP022
  • 122100Z AUTO 24007KT 6SM RA BR OVC029 01/01 A2959 RMK SLP022
  • 122034Z AUTO 23005KT 6SM -RA BR OVC025 01/01 A2958 RMK SLP019

TAF AMD TAF CYFC
Valido dal 12 a 21 ore il 13 a 06 ore UTC


122120Z 1221/1306 25005KT 6SM -RA BR SCT005 OVC025
TEMPO 1221/1222 2SM -RA BR OVC005
FM122200 28012G22KT 6SM -RASN SCT005 OVC010
TEMPO 1222/1224 2SM -RASN BR OVC005
PROB30 1222/1224 4SM -FZRA -PL BR
FM130000 25012G22KT 1SM -SN VV010
FM130300 26012G22KT P6SM -SN OVC015
FM130500 27012G22KT P6SM BKN025 RMK FCST BASED ON AUTO OBS. NXT FCST BY 130000Z



MetMap, La meteo Aeronautica in un colpo d'occhio ! - Copyright ORBIFLY Dicembre 2007 - Disclaimer

ORBIFLY MET'MAP TEAM :

Programmazione e sviluppo : Alexandra Zaïnal
Concezione e sviluppo : Baudouin d'Aumeries
Co-Programmazione e sviluppo : Marc-Olivier Méhu
Supporto tecnico e logistico : Manuel Goepfert
Aiuto per la traduzione : Arnaldo La Scala

Contatto : metmap@orbifly.com




FONTI E CREDITI :

   NOAA